Time;durP1;ratioP1;P1;durP2;ratioP2;P2;SDS_P1;SDS_P2;PMS_P1;PMS_P2;Temp;Humidity;BMP_temperature;BMP_pressure;BME280_temperature;BME280_humidity;BME280_pressure;Samples;Min_cycle;Max_cycle;Signal;HPM_P1;HPM_P2
2022/02/17 00:00:03;;;;;;;3.37;1.53;;;9.80;99.90;;;;;;5069325;28;20292;-66
2022/02/17 00:02:30;;;;;;;2.83;1.73;;;9.70;99.90;;;;;;5067705;28;20209;-66
2022/02/17 00:05:00;;;;;;;1.70;1.50;;;9.80;99.90;;;;;;5070035;28;20297;-68
2022/02/17 00:07:26;;;;;;;2.27;1.40;;;9.70;99.90;;;;;;5063185;28;20229;-66
2022/02/17 00:09:53;;;;;;;1.77;1.33;;;9.70;99.90;;;;;;5070883;28;20624;-66
2022/02/17 00:12:20;;;;;;;2.13;1.60;;;9.70;99.90;;;;;;5071497;28;20292;-66
2022/02/17 00:14:47;;;;;;;1.60;1.50;;;9.70;99.90;;;;;;5075471;28;20197;-66
2022/02/17 00:17:14;;;;;;;2.80;1.63;;;9.70;99.90;;;;;;5074230;28;20628;-66
2022/02/17 00:19:40;;;;;;;1.87;1.60;;;9.70;99.90;;;;;;5079474;28;20240;-67
2022/02/17 00:22:09;;;;;;;2.03;1.80;;;9.70;99.90;;;;;;5065581;28;20279;-66
2022/02/17 00:24:36;;;;;;;2.73;1.50;;;9.70;99.90;;;;;;5074497;28;20197;-65
2022/02/17 00:27:02;;;;;;;2.47;1.73;;;9.70;99.90;;;;;;5082625;28;20605;-66
2022/02/17 00:29:29;;;;;;;2.10;1.50;;;9.70;99.90;;;;;;5071224;28;20335;-65
2022/02/17 00:31:56;;;;;;;2.37;1.27;;;9.70;99.90;;;;;;5072060;28;20205;-66
2022/02/17 00:34:23;;;;;;;1.60;1.37;;;9.70;99.90;;;;;;5069926;28;20213;-65
2022/02/17 00:36:50;;;;;;;1.53;1.30;;;9.70;99.90;;;;;;5069684;28;20206;-65
2022/02/17 00:39:20;;;;;;;1.60;1.50;;;9.70;99.90;;;;;;5072838;28;20237;-66
2022/02/17 00:41:47;;;;;;;3.37;2.03;;;9.70;99.90;;;;;;5072892;28;20296;-66
2022/02/17 00:44:14;;;;;;;2.70;1.60;;;9.70;99.90;;;;;;5071230;28;20244;-66
2022/02/17 00:46:41;;;;;;;2.20;1.60;;;9.70;99.90;;;;;;5075699;28;20201;-66
2022/02/17 00:49:07;;;;;;;1.97;1.47;;;9.70;99.90;;;;;;5071225;28;20244;-66
2022/02/17 00:51:34;;;;;;;1.80;1.40;;;9.60;99.90;;;;;;5069123;28;20664;-65
2022/02/17 00:54:01;;;;;;;1.67;1.50;;;9.70;99.90;;;;;;5076641;28;20566;-66
2022/02/17 00:56:30;;;;;;;2.67;1.53;;;9.60;99.90;;;;;;5084862;28;20318;-67
2022/02/17 00:58:57;;;;;;;2.47;1.50;;;9.60;99.90;;;;;;5087685;28;20289;-66
2022/02/17 01:01:24;;;;;;;1.90;1.30;;;9.60;99.90;;;;;;5072476;28;20209;-66
2022/02/17 01:03:51;;;;;;;1.60;1.43;;;9.60;99.90;;;;;;5076157;28;20201;-66
2022/02/17 01:06:18;;;;;;;2.10;1.30;;;9.60;99.90;;;;;;5068205;28;20568;-66
2022/02/17 01:08:45;;;;;;;2.63;1.53;;;9.60;99.90;;;;;;5079382;28;20216;-66
2022/02/17 01:11:12;;;;;;;1.70;1.40;;;9.60;99.90;;;;;;5080810;28;20233;-66
2022/02/17 01:13:40;;;;;;;3.60;1.80;;;9.60;99.90;;;;;;5075754;28;20223;-66
2022/02/17 01:16:07;;;;;;;1.83;1.30;;;9.60;99.90;;;;;;5063213;28;20210;-66
2022/02/17 01:18:34;;;;;;;2.63;1.63;;;9.60;99.90;;;;;;5077058;28;20204;-66
2022/02/17 01:21:01;;;;;;;3.63;2.00;;;9.60;99.90;;;;;;5071949;28;20235;-66
2022/02/17 01:23:28;;;;;;;1.77;1.57;;;9.60;99.90;;;;;;5072544;28;20244;-66
2022/02/17 01:25:55;;;;;;;2.87;1.70;;;9.60;99.90;;;;;;5075073;28;20212;-65
2022/02/17 01:28:22;;;;;;;1.43;1.30;;;9.60;99.90;;;;;;5071616;28;20217;-65
2022/02/17 01:30:50;;;;;;;2.47;1.80;;;9.60;99.90;;;;;;5065292;28;20232;-66
2022/02/17 01:33:17;;;;;;;1.87;1.53;;;9.50;99.90;;;;;;5070318;28;20210;-66
2022/02/17 01:35:43;;;;;;;2.73;1.90;;;9.50;99.90;;;;;;5069376;28;20258;-65
2022/02/17 01:38:10;;;;;;;1.83;1.40;;;9.50;99.90;;;;;;5067408;28;20215;-66
2022/02/17 01:40:37;;;;;;;2.00;1.80;;;9.50;99.90;;;;;;5069657;28;20202;-66
2022/02/17 01:43:04;;;;;;;2.67;1.87;;;9.50;99.90;;;;;;5071466;28;20539;-67
2022/02/17 01:45:31;;;;;;;2.33;1.77;;;9.40;99.90;;;;;;5070133;28;20292;-67
2022/02/17 01:47:59;;;;;;;1.70;1.50;;;9.40;99.90;;;;;;5072240;28;20326;-66
2022/02/17 01:50:26;;;;;;;2.30;1.90;;;9.40;99.90;;;;;;5071555;28;20209;-66
2022/02/17 01:52:53;;;;;;;3.83;1.90;;;9.40;99.90;;;;;;5056642;28;20237;-67
2022/02/17 01:55:21;;;;;;;2.20;2.00;;;9.40;99.90;;;;;;5067902;28;20299;-67
2022/02/17 01:57:48;;;;;;;1.70;1.60;;;9.40;99.90;;;;;;5072040;28;20212;-67
2022/02/17 02:00:15;;;;;;;4.10;2.37;;;9.30;99.90;;;;;;5066461;28;20205;-69
2022/02/17 02:02:46;;;;;;;2.10;1.90;;;9.40;99.90;;;;;;5066675;28;20288;-68
2022/02/17 02:05:14;;;;;;;2.70;1.80;;;9.40;99.90;;;;;;5066541;28;20676;-70
2022/02/17 02:07:41;;;;;;;2.33;1.87;;;9.30;99.90;;;;;;5072930;28;20318;-71
2022/02/17 02:10:09;;;;;;;2.37;1.87;;;9.40;99.90;;;;;;5074576;28;20212;-69
2022/02/17 02:12:36;;;;;;;2.63;1.90;;;9.40;99.90;;;;;;5070472;28;20252;-69
2022/02/17 02:15:04;;;;;;;2.80;1.87;;;9.40;99.90;;;;;;5073859;28;20687;-68
2022/02/17 02:17:33;;;;;;;2.63;2.07;;;9.40;99.90;;;;;;5073645;28;20259;-69
2022/02/17 02:20:02;;;;;;;2.60;1.90;;;9.30;99.90;;;;;;5071995;28;20619;-68
2022/02/17 02:22:32;;;;;;;2.43;1.47;;;9.30;99.90;;;;;;5069645;28;20308;-68
2022/02/17 02:24:59;;;;;;;2.57;2.03;;;9.30;99.90;;;;;;5073358;28;20209;-68
2022/02/17 02:27:27;;;;;;;3.03;1.80;;;9.30;99.90;;;;;;5071833;28;20662;-68
2022/02/17 02:29:54;;;;;;;2.20;2.00;;;9.20;99.90;;;;;;5076582;28;20582;-69
2022/02/17 02:32:21;;;;;;;3.53;2.03;;;9.20;99.90;;;;;;5071852;28;20198;-68
2022/02/17 02:34:48;;;;;;;3.27;1.80;;;9.20;99.90;;;;;;5058402;28;20204;-68
2022/02/17 02:37:15;;;;;;;4.43;2.20;;;9.20;99.90;;;;;;5073706;28;20209;-68
2022/02/17 02:39:43;;;;;;;3.60;2.30;;;9.10;99.90;;;;;;5069183;28;20240;-68
2022/02/17 02:42:10;;;;;;;3.13;1.93;;;9.00;99.90;;;;;;5072893;28;20209;-68
2022/02/17 02:44:38;;;;;;;3.87;1.87;;;9.00;99.90;;;;;;5076199;28;20205;-68
2022/02/17 02:47:06;;;;;;;2.63;1.77;;;8.90;99.90;;;;;;5074163;28;20218;-68
2022/02/17 02:49:32;;;;;;;3.77;2.07;;;8.80;99.90;;;;;;5063639;28;20605;-68
2022/02/17 02:51:59;;;;;;;2.40;1.90;;;8.80;99.90;;;;;;5074122;28;20209;-68
2022/02/17 02:54:26;;;;;;;2.43;2.00;;;8.80;99.90;;;;;;5077840;28;20614;-68
2022/02/17 02:56:54;;;;;;;2.40;1.73;;;8.80;99.90;;;;;;5075112;28;20300;-68
2022/02/17 02:59:21;;;;;;;2.17;1.67;;;8.70;99.90;;;;;;5074258;28;20302;-68
2022/02/17 03:01:48;;;;;;;2.07;1.80;;;8.80;99.90;;;;;;5074609;28;20564;-68
2022/02/17 03:04:15;;;;;;;3.90;2.30;;;8.80;99.90;;;;;;5075934;28;20625;-68
2022/02/17 03:06:42;;;;;;;2.37;2.17;;;8.70;99.90;;;;;;5073310;28;20205;-68
2022/02/17 03:09:08;;;;;;;4.07;2.10;;;8.70;99.90;;;;;;5077573;28;20231;-68
2022/02/17 03:11:35;;;;;;;4.10;2.23;;;8.70;99.90;;;;;;5070429;28;20237;-69
2022/02/17 03:14:04;;;;;;;2.80;2.10;;;8.70;99.90;;;;;;5080881;28;20206;-68
2022/02/17 03:16:31;;;;;;;2.70;2.20;;;8.60;99.90;;;;;;5078034;28;20212;-68
2022/02/17 03:18:58;;;;;;;2.53;2.00;;;8.60;99.90;;;;;;5076201;28;20705;-68
2022/02/17 03:21:25;;;;;;;4.43;2.30;;;8.50;99.90;;;;;;5082129;28;20659;-68
2022/02/17 03:23:53;;;;;;;2.13;1.93;;;8.50;99.90;;;;;;5068061;28;20209;-68
2022/02/17 03:26:20;;;;;;;1.97;1.77;;;8.50;99.90;;;;;;5079793;28;20224;-68
2022/02/17 03:28:47;;;;;;;2.60;1.93;;;8.50;99.90;;;;;;5079656;28;20227;-68
2022/02/17 03:31:15;;;;;;;2.30;2.10;;;8.40;99.90;;;;;;5073956;28;20213;-68
2022/02/17 03:33:42;;;;;;;4.63;2.20;;;8.40;99.90;;;;;;5081141;28;20248;-68
2022/02/17 03:36:09;;;;;;;3.30;1.87;;;8.40;99.90;;;;;;5070847;28;20232;-68
2022/02/17 03:38:36;;;;;;;2.33;1.87;;;8.40;99.90;;;;;;5068216;28;20316;-68
2022/02/17 03:41:03;;;;;;;3.57;2.07;;;8.40;99.90;;;;;;5070937;28;20300;-68
2022/02/17 03:43:29;;;;;;;1.97;1.60;;;8.40;99.90;;;;;;5073011;28;20322;-68
2022/02/17 03:45:56;;;;;;;2.13;1.80;;;8.40;99.90;;;;;;5071559;28;20254;-68
2022/02/17 03:48:24;;;;;;;2.10;1.60;;;8.50;99.90;;;;;;5072037;28;20225;-68
2022/02/17 03:50:51;;;;;;;1.67;1.57;;;8.50;99.90;;;;;;5073361;28;20288;-68
2022/02/17 03:53:18;;;;;;;1.97;1.77;;;8.40;99.90;;;;;;5074504;28;20210;-69
2022/02/17 03:55:45;;;;;;;2.23;1.57;;;8.50;99.90;;;;;;5072072;28;20304;-69
2022/02/17 03:59:00;;;;;;;2.30;1.50;;;8.50;99.90;;;;;;5064770;28;20566;-68
2022/02/17 04:01:01;;;;;;;1.60;1.50;;;8.60;99.90;;;;;;5071366;28;20209;-68
2022/02/17 04:03:29;;;;;;;1.77;1.53;;;8.60;99.90;;;;;;5070107;28;20418;-69
2022/02/17 04:05:57;;;;;;;1.60;1.43;;;8.60;99.90;;;;;;5064119;28;20206;-69
2022/02/17 04:08:23;;;;;;;1.40;1.30;;;8.60;99.90;;;;;;5073625;28;20217;-69
2022/02/17 04:10:50;;;;;;;1.40;1.30;;;8.70;99.90;;;;;;5073306;28;20239;-69
2022/02/17 04:13:17;;;;;;;1.47;1.37;;;8.80;99.90;;;;;;5069509;28;20267;-68
2022/02/17 04:15:44;;;;;;;1.90;1.37;;;8.70;99.90;;;;;;5072305;28;20201;-69
2022/02/17 04:18:11;;;;;;;1.50;1.40;;;8.80;99.90;;;;;;5074544;28;20205;-68
2022/02/17 04:20:39;;;;;;;1.70;1.40;;;8.80;99.90;;;;;;5067340;28;20279;-68
2022/02/17 04:23:06;;;;;;;1.70;1.10;;;8.80;99.90;;;;;;5065138;28;20201;-68
2022/02/17 04:25:33;;;;;;;1.30;1.20;;;8.90;99.90;;;;;;5074392;28;20277;-68
2022/02/17 04:28:00;;;;;;;1.30;1.10;;;8.80;99.90;;;;;;5065099;28;20846;-68
2022/02/17 04:30:27;;;;;;;1.67;1.20;;;8.90;99.90;;;;;;5073791;28;20274;-68
2022/02/17 04:32:53;;;;;;;1.83;1.30;;;8.90;99.90;;;;;;5076070;28;20635;-68
2022/02/17 04:35:20;;;;;;;2.20;1.30;;;8.90;99.90;;;;;;5078426;28;20202;-68
2022/02/17 04:37:49;;;;;;;1.20;1.10;;;8.90;99.90;;;;;;5066949;28;20205;-69
2022/02/17 04:40:15;;;;;;;1.87;1.27;;;9.00;99.90;;;;;;5072492;28;20240;-69
2022/02/17 04:42:41;;;;;;;1.20;1.10;;;9.00;99.90;;;;;;5062720;28;20231;-70
2022/02/17 04:45:09;;;;;;;1.30;1.20;;;9.00;99.90;;;;;;5061088;28;20626;-68
2022/02/17 04:47:36;;;;;;;1.23;1.13;;;9.00;99.90;;;;;;5066706;28;20209;-68
2022/02/17 04:50:04;;;;;;;2.00;1.27;;;9.10;99.90;;;;;;5072145;28;20217;-69
2022/02/17 04:52:31;;;;;;;1.40;1.30;;;9.10;99.90;;;;;;5074506;28;20207;-68
2022/02/17 04:54:59;;;;;;;2.57;1.13;;;9.10;99.90;;;;;;5075591;28;20228;-69
2022/02/17 04:57:26;;;;;;;1.20;1.10;;;9.10;99.90;;;;;;5068210;28;20210;-68
2022/02/17 04:59:53;;;;;;;2.03;1.10;;;9.20;99.90;;;;;;5074069;28;20303;-68
2022/02/17 05:02:20;;;;;;;1.27;1.17;;;9.20;99.90;;;;;;5060326;28;20646;-68
2022/02/17 05:04:46;;;;;;;2.53;1.57;;;9.20;99.90;;;;;;5073873;28;20684;-69
2022/02/17 05:07:13;;;;;;;2.53;1.17;;;9.20;99.90;;;;;;5082777;28;20236;-68
2022/02/17 05:09:40;;;;;;;1.37;1.27;;;9.30;99.90;;;;;;5073133;28;20221;-68
2022/02/17 05:12:09;;;;;;;1.97;1.70;;;9.40;99.90;;;;;;5064492;28;20292;-68
2022/02/17 05:14:36;;;;;;;1.37;1.27;;;9.40;99.90;;;;;;5068681;28;20756;-68
2022/02/17 05:17:03;;;;;;;1.70;1.50;;;9.40;99.90;;;;;;5061271;28;20241;-68
2022/02/17 05:19:30;;;;;;;1.40;1.30;;;9.00;99.90;;;;;;5065009;28;20252;-68
2022/02/17 05:21:56;;;;;;;1.43;1.30;;;9.60;99.90;;;;;;5071716;28;20315;-68
2022/02/17 05:24:23;;;;;;;1.80;1.20;;;9.60;99.90;;;;;;5072989;28;20205;-68
2022/02/17 05:26:50;;;;;;;1.30;1.20;;;9.70;99.90;;;;;;5070867;28;20212;-68
2022/02/17 05:29:19;;;;;;;1.37;1.27;;;9.70;99.90;;;;;;5079460;28;20220;-68
2022/02/17 05:31:46;;;;;;;1.20;1.10;;;9.70;99.90;;;;;;5064395;28;20668;-68
2022/02/17 05:34:13;;;;;;;2.03;1.20;;;9.80;99.90;;;;;;5080911;28;20205;-68
2022/02/17 05:36:40;;;;;;;0.63;0.63;;;9.80;99.90;;;;;;5072975;28;20205;-67
2022/02/17 05:39:07;;;;;;;1.23;0.80;;;9.80;99.90;;;;;;5071069;28;20578;-69
2022/02/17 05:41:34;;;;;;;0.50;0.50;;;9.70;99.90;;;;;;5072316;28;20643;-68
2022/02/17 05:44:01;;;;;;;0.77;0.40;;;9.60;99.90;;;;;;5066474;28;20205;-69
2022/02/17 05:46:29;;;;;;;3.50;0.50;;;9.50;99.90;;;;;;5069717;28;20227;-68
2022/02/17 05:48:56;;;;;;;2.33;0.47;;;9.20;99.90;;;;;;5065189;28;20232;-69
2022/02/17 05:51:23;;;;;;;0.50;0.50;;;9.10;99.90;;;;;;5067188;28;20248;-68
2022/02/17 05:53:50;;;;;;;0.67;0.60;;;9.00;99.90;;;;;;5064389;28;20240;-68
2022/02/17 05:56:17;;;;;;;0.73;0.63;;;8.80;99.90;;;;;;5071872;28;20201;-68
2022/02/17 05:58:44;;;;;;;0.37;0.37;;;8.70;99.90;;;;;;5072619;28;20201;-68
2022/02/17 06:01:10;;;;;;;1.60;0.40;;;8.30;99.90;;;;;;5070772;28;20304;-69
2022/02/17 06:03:39;;;;;;;0.60;0.50;;;8.40;99.90;;;;;;5069360;28;20288;-68
2022/02/17 06:06:05;;;;;;;1.03;0.60;;;8.40;99.90;;;;;;5081329;28;20281;-68
2022/02/17 06:08:32;;;;;;;0.97;0.70;;;8.30;99.90;;;;;;5071528;28;20212;-69
2022/02/17 06:10:59;;;;;;;0.93;0.50;;;8.20;99.90;;;;;;5073020;28;20211;-69
2022/02/17 06:13:26;;;;;;;0.70;0.50;;;8.20;99.90;;;;;;5073636;28;20351;-69
2022/02/17 06:15:53;;;;;;;2.20;0.50;;;8.20;99.90;;;;;;5069390;28;20228;-69
2022/02/17 06:18:20;;;;;;;0.50;0.50;;;8.20;99.90;;;;;;5077032;28;20624;-68
2022/02/17 06:20:48;;;;;;;0.90;0.80;;;8.10;99.90;;;;;;5065811;28;20276;-68
2022/02/17 06:23:15;;;;;;;2.33;0.70;;;8.10;99.90;;;;;;5073037;28;20673;-67
2022/02/17 06:25:42;;;;;;;1.40;0.60;;;8.10;99.90;;;;;;5065482;28;20209;-69
2022/02/17 06:28:09;;;;;;;2.70;1.03;;;8.00;99.90;;;;;;5083486;28;20621;-69
2022/02/17 06:30:36;;;;;;;1.90;0.73;;;8.00;99.90;;;;;;5080932;28;20225;-70
2022/02/17 06:33:03;;;;;;;1.13;0.83;;;8.00;99.90;;;;;;5063799;28;20654;-68
2022/02/17 06:35:33;;;;;;;2.17;0.70;;;8.00;99.90;;;;;;5076053;28;20202;-69
2022/02/17 06:38:01;;;;;;;2.37;0.80;;;7.90;99.90;;;;;;5071813;28;20209;-69
2022/02/17 06:40:29;;;;;;;1.23;0.70;;;7.90;99.90;;;;;;5067958;28;20206;-68
2022/02/17 06:42:56;;;;;;;1.60;0.90;;;7.90;99.90;;;;;;5079961;28;20506;-67
2022/02/17 06:45:23;;;;;;;1.00;0.73;;;7.80;99.90;;;;;;5080822;28;20679;-70
2022/02/17 06:47:50;;;;;;;1.77;0.80;;;7.80;99.90;;;;;;5072738;28;20201;-70
2022/02/17 06:50:17;;;;;;;1.43;0.83;;;7.70;99.90;;;;;;5071325;28;20664;-70
2022/02/17 06:52:44;;;;;;;0.60;0.60;;;7.80;99.90;;;;;;5072659;28;20252;-71
2022/02/17 06:55:13;;;;;;;4.53;0.83;;;7.80;99.90;;;;;;5069266;28;20241;-72
2022/02/17 06:57:40;;;;;;;1.27;0.70;;;7.70;99.90;;;;;;5076706;28;20201;-71
2022/02/17 07:00:08;;;;;;;1.93;0.93;;;7.70;99.90;;;;;;5074389;28;20364;-72
2022/02/17 07:02:35;;;;;;;2.23;1.17;;;7.70;99.90;;;;;;5076159;28;20319;-72
2022/02/17 07:05:04;;;;;;;1.67;1.00;;;7.70;99.90;;;;;;5072753;28;20546;-72
2022/02/17 07:07:35;;;;;;;2.90;1.23;;;7.70;99.90;;;;;;5074669;28;20288;-71
2022/02/17 07:10:03;;;;;;;3.77;1.30;;;7.70;99.90;;;;;;5072846;28;20217;-72
2022/02/17 07:12:32;;;;;;;4.27;1.27;;;7.80;99.90;;;;;;5074295;28;20287;-68
2022/02/17 07:14:59;;;;;;;2.77;1.10;;;7.80;99.90;;;;;;5074976;28;20210;-69
2022/02/17 07:17:26;;;;;;;1.80;1.00;;;7.80;99.90;;;;;;5074034;28;20685;-68
2022/02/17 07:19:53;;;;;;;1.37;0.90;;;7.80;99.90;;;;;;5080823;28;20209;-69
2022/02/17 07:22:20;;;;;;;2.63;1.20;;;7.80;99.90;;;;;;5074644;28;20813;-69
2022/02/17 07:24:48;;;;;;;1.30;0.90;;;7.90;99.90;;;;;;5081010;28;20649;-69
2022/02/17 07:27:15;;;;;;;1.20;1.03;;;7.90;99.90;;;;;;5074133;28;20231;-69
2022/02/17 07:29:43;;;;;;;2.93;1.20;;;7.90;99.90;;;;;;5072973;28;20221;-69
2022/02/17 07:32:11;;;;;;;1.87;0.90;;;7.90;99.90;;;;;;5075624;28;20209;-68
2022/02/17 07:34:38;;;;;;;3.70;1.10;;;7.90;99.90;;;;;;5073440;28;20213;-69
2022/02/17 07:37:05;;;;;;;2.77;1.13;;;7.90;99.90;;;;;;5074124;28;20216;-69
2022/02/17 07:39:33;;;;;;;3.03;1.43;;;7.90;99.90;;;;;;5078003;28;20323;-70
2022/02/17 07:42:00;;;;;;;2.43;1.20;;;7.90;99.90;;;;;;5078059;28;20219;-69
2022/02/17 07:44:27;;;;;;;2.67;1.30;;;7.90;99.90;;;;;;5078664;28;20654;-69
2022/02/17 07:46:56;;;;;;;2.43;0.87;;;8.00;99.90;;;;;;5081031;28;20296;-68
2022/02/17 07:49:23;;;;;;;1.77;1.00;;;7.90;99.90;;;;;;5085112;28;20229;-70
2022/02/17 07:51:50;;;;;;;2.87;0.97;;;7.90;99.90;;;;;;5081543;28;20201;-71
2022/02/17 07:54:17;;;;;;;3.13;1.00;;;8.00;99.90;;;;;;5078115;28;20236;-71
2022/02/17 07:56:44;;;;;;;0.97;0.87;;;8.30;99.90;;;;;;5075009;28;20209;-69
2022/02/17 07:59:11;;;;;;;7.67;1.20;;;8.00;99.90;;;;;;5073467;28;20197;-69
2022/02/17 08:01:38;;;;;;;1.77;1.00;;;8.00;99.90;;;;;;5078039;28;20209;-69
2022/02/17 08:04:06;;;;;;;3.90;1.50;;;8.00;99.90;;;;;;5076134;28;20205;-69
2022/02/17 08:06:33;;;;;;;2.00;0.90;;;8.00;99.90;;;;;;5067164;28;20263;-70
2022/02/17 08:09:00;;;;;;;3.33;1.23;;;8.10;99.90;;;;;;5080563;28;20209;-70
2022/02/17 08:11:27;;;;;;;4.73;1.00;;;8.10;99.90;;;;;;5075275;28;20680;-69
2022/02/17 08:13:54;;;;;;;2.33;0.90;;;8.10;99.90;;;;;;5072987;28;20313;-69
2022/02/17 08:16:23;;;;;;;2.13;0.93;;;8.20;99.90;;;;;;5074496;28;20209;-69
2022/02/17 08:18:53;;;;;;;4.60;1.10;;;8.20;99.90;;;;;;5073436;28;20601;-71
2022/02/17 08:21:21;;;;;;;3.60;1.60;;;8.20;99.90;;;;;;5076105;28;20721;-69
2022/02/17 08:23:49;;;;;;;2.03;1.10;;;8.20;99.90;;;;;;5078781;28;20241;-70
2022/02/17 08:26:16;;;;;;;3.73;1.43;;;8.30;99.90;;;;;;5077224;28;20240;-70
2022/02/17 08:28:43;;;;;;;3.30;1.10;;;8.30;99.90;;;;;;5064633;28;20208;-71
2022/02/17 08:31:09;;;;;;;5.07;1.70;;;8.30;99.90;;;;;;5065950;28;20224;-75
2022/02/17 08:33:36;;;;;;;2.37;1.40;;;8.40;99.90;;;;;;5077195;28;20209;-72
2022/02/17 08:36:04;;;;;;;2.47;1.63;;;8.40;99.90;;;;;;5070354;28;20268;-71
2022/02/17 08:38:32;;;;;;;6.37;1.40;;;8.40;99.90;;;;;;5071040;28;20324;-72
2022/02/17 08:41:00;;;;;;;4.33;1.50;;;8.30;99.90;;;;;;5079514;28;20209;-72
2022/02/17 08:43:27;;;;;;;6.47;1.47;;;8.40;99.90;;;;;;5071251;28;20213;-72
2022/02/17 08:45:54;;;;;;;3.77;1.70;;;8.30;99.90;;;;;;5073829;28;20241;-71
2022/02/17 08:48:20;;;;;;;4.03;1.23;;;8.40;99.90;;;;;;5075090;28;20298;-73
2022/02/17 08:50:47;;;;;;;2.83;1.53;;;8.40;99.90;;;;;;5074158;28;20253;-72
2022/02/17 08:53:15;;;;;;;5.13;1.67;;;8.50;99.90;;;;;;5078216;28;20236;-72
2022/02/17 08:55:43;;;;;;;4.73;1.63;;;8.50;99.90;;;;;;5079384;28;20315;-74
2022/02/17 08:58:10;;;;;;;3.77;1.40;;;8.60;99.90;;;;;;5074488;28;20236;-73
2022/02/17 09:00:37;;;;;;;5.17;1.47;;;8.60;99.90;;;;;;5070648;28;20217;-72
2022/02/17 09:03:06;;;;;;;5.17;1.90;;;8.70;99.90;;;;;;5072666;28;20239;-72
2022/02/17 09:05:33;;;;;;;4.83;2.20;;;8.70;99.90;;;;;;5074333;28;20209;-72
2022/02/17 09:08:00;;;;;;;6.67;2.13;;;8.70;99.90;;;;;;5068124;28;20305;-72
2022/02/17 09:10:27;;;;;;;4.77;1.90;;;8.80;99.90;;;;;;5077664;28;20222;-71
2022/02/17 09:12:55;;;;;;;4.30;1.73;;;8.80;99.90;;;;;;5072985;28;20205;-73
2022/02/17 09:15:22;;;;;;;4.63;1.50;;;8.90;99.90;;;;;;5078517;28;20240;-73
2022/02/17 09:17:49;;;;;;;2.80;1.73;;;8.90;99.90;;;;;;5078866;28;20202;-72
2022/02/17 09:20:16;;;;;;;2.90;1.90;;;9.00;99.90;;;;;;5073158;28;20661;-72
2022/02/17 09:22:44;;;;;;;7.67;1.70;;;9.30;99.90;;;;;;5074768;28;20224;-73
2022/02/17 09:25:12;;;;;;;5.50;1.77;;;10.00;99.90;;;;;;5073605;28;20216;-74
2022/02/17 09:27:39;;;;;;;3.60;1.37;;;10.80;99.90;;;;;;5078975;28;20667;-72
2022/02/17 09:30:09;;;;;;;2.90;1.77;;;11.80;99.90;;;;;;5069720;28;20256;-73
2022/02/17 09:32:36;;;;;;;3.83;1.50;;;13.60;99.90;;;;;;5070158;28;20572;-72
2022/02/17 09:35:04;;;;;;;2.20;1.20;;;16.10;99.90;;;;;;5067989;28;20197;-72
2022/02/17 09:37:31;;;;;;;2.77;1.20;;;17.00;94.10;;;;;;5069485;28;20233;-72
2022/02/17 09:39:59;;;;;;;3.60;1.10;;;17.00;90.40;;;;;;5075561;28;20240;-72
2022/02/17 09:42:26;;;;;;;3.00;0.90;;;16.30;85.40;;;;;;5075442;28;20282;-72
2022/02/17 09:44:54;;;;;;;4.50;1.20;;;15.40;85.50;;;;;;5071690;28;20205;-72
2022/02/17 09:47:24;;;;;;;4.50;1.73;;;14.60;88.30;;;;;;5087020;28;20204;-72
2022/02/17 09:49:52;;;;;;;4.53;1.00;;;13.80;90.70;;;;;;5080596;28;20196;-71
2022/02/17 09:52:19;;;;;;;9.10;1.70;;;13.10;91.90;;;;;;5077296;28;20208;-70
2022/02/17 09:54:46;;;;;;;1.83;1.20;;;12.60;93.30;;;;;;5070258;28;20355;-72
2022/02/17 09:57:14;;;;;;;3.00;1.10;;;12.10;94.70;;;;;;5063374;28;20731;-71
2022/02/17 09:59:42;;;;;;;2.80;1.20;;;11.80;95.90;;;;;;5068466;28;20214;-72
2022/02/17 10:02:11;;;;;;;4.77;1.70;;;11.40;97.40;;;;;;5066806;28;20688;-73
2022/02/17 10:04:39;;;;;;;2.80;1.50;;;11.20;98.20;;;;;;5084747;28;20204;-73
2022/02/17 10:07:07;;;;;;;4.80;1.63;;;10.90;99.00;;;;;;5072815;28;20205;-72
2022/02/17 10:09:39;;;;;;;3.90;1.37;;;10.80;99.90;;;;;;5068541;28;20251;-69
2022/02/17 10:12:08;;;;;;;5.53;2.23;;;10.60;99.90;;;;;;5063966;28;20685;-69
2022/02/17 10:14:36;;;;;;;2.03;1.37;;;10.50;99.90;;;;;;5076347;28;20619;-69
2022/02/17 10:17:06;;;;;;;2.50;1.10;;;10.40;99.90;;;;;;5084032;28;20280;-70
2022/02/17 10:19:36;;;;;;;5.17;1.60;;;10.30;99.90;;;;;;5074862;28;20212;-69
2022/02/17 10:22:08;;;;;;;3.47;1.70;;;10.30;99.90;;;;;;5066671;28;20682;-69
2022/02/17 10:24:44;;;;;;;4.10;1.50;;;10.30;99.90;;;;;;5068480;28;20202;-70
2022/02/17 10:27:12;;;;;;;4.47;2.30;;;10.20;99.90;;;;;;5072959;28;20284;-68
2022/02/17 10:29:40;;;;;;;2.53;1.00;;;10.30;99.90;;;;;;5073606;28;20239;-68
2022/02/17 10:32:13;;;;;;;6.97;2.00;;;10.50;99.90;;;;;;5063319;28;20261;-69
2022/02/17 10:34:42;;;;;;;6.00;1.60;;;11.50;99.90;;;;;;5068591;28;20209;-70
2022/02/17 10:37:10;;;;;;;2.53;1.20;;;14.90;99.90;;;;;;5069116;28;20653;-71
2022/02/17 10:39:42;;;;;;;2.23;1.23;;;18.40;91.00;;;;;;5065170;28;20261;-69
2022/02/17 10:42:10;;;;;;;3.67;1.10;;;21.50;77.30;;;;;;5064498;28;20192;-70
2022/02/17 10:44:39;;;;;;;2.38;1.67;;;24.10;58.10;;;;;;5071647;28;20213;-70
2022/02/17 10:47:17;;;;;;;2.83;1.38;;;25.50;51.10;;;;;;5067452;28;20530;-70
2022/02/17 10:49:47;;;;;;;3.03;1.15;;;25.40;48.50;;;;;;5068684;28;20205;-70
2022/02/17 10:52:27;;;;;;;5.72;1.45;;;24.20;46.40;;;;;;5073674;28;20260;-71
2022/02/17 10:55:10;;;;;;;5.15;1.98;;;22.30;47.10;;;;;;5072244;28;20198;-70
2022/02/17 10:57:37;;;;;;;5.97;1.40;;;20.50;48.60;;;;;;5075987;28;20194;-71
2022/02/17 11:00:16;;;;;;;3.77;1.37;;;18.80;50.30;;;;;;5072680;28;20205;-70
2022/02/17 11:02:44;;;;;;;2.20;1.27;;;17.30;52.50;;;;;;5078475;28;20210;-72
2022/02/17 11:05:11;;;;;;;4.40;1.20;;;16.00;54.70;;;;;;5069962;28;20296;-72
2022/02/17 11:07:40;;;;;;;3.83;1.20;;;15.00;56.70;;;;;;5076165;28;20752;-70
2022/02/17 11:10:09;;;;;;;3.47;1.47;;;14.30;58.60;;;;;;5078394;28;20288;-71
2022/02/17 11:12:37;;;;;;;5.53;1.63;;;13.60;60.60;;;;;;5074581;28;20208;-67
2022/02/17 11:15:05;;;;;;;3.47;1.37;;;13.10;62.90;;;;;;5070620;28;20240;-67
2022/02/17 11:17:36;;;;;;;2.50;1.33;;;12.60;64.80;;;;;;5076298;28;20209;-68
2022/02/17 11:20:08;;;;;;;2.60;1.00;;;12.30;66.80;;;;;;5075840;28;20190;-67
2022/02/17 11:22:35;;;;;;;3.73;1.50;;;11.90;69.80;;;;;;5082578;28;20197;-68
2022/02/17 11:25:04;;;;;;;2.93;1.00;;;11.50;72.60;;;;;;5085697;28;20236;-68
2022/02/17 11:27:31;;;;;;;2.60;1.00;;;11.20;76.00;;;;;;5071405;28;20220;-68
2022/02/17 11:30:17;;;;;;;1.43;0.80;;;10.90;80.70;;;;;;5073532;28;20692;-68
2022/02/17 11:32:45;;;;;;;2.03;1.07;;;10.60;86.20;;;;;;5078832;28;20205;-66
2022/02/17 11:35:30;;;;;;;1.47;0.90;;;10.50;92.60;;;;;;5072521;28;20716;-68
2022/02/17 11:37:57;;;;;;;1.57;0.90;;;10.60;95.70;;;;;;5070332;28;20210;-69
2022/02/17 11:40:26;;;;;;;2.57;1.30;;;10.50;98.10;;;;;;5035677;28;20209;-69
2022/02/17 11:43:03;;;;;;;0.97;0.90;;;10.60;99.90;;;;;;5035066;28;20209;-67
2022/02/17 11:45:43;;;;;;;3.00;1.40;;;10.90;99.90;;;;;;5028274;28;20234;-69
2022/02/17 11:48:12;;;;;;;2.70;1.20;;;10.90;99.90;;;;;;5032760;28;20262;-74
2022/02/17 11:50:41;;;;;;;2.03;1.43;;;10.90;99.90;;;;;;5036292;28;20246;-72
2022/02/17 11:53:25;;;;;;;2.83;1.37;;;10.70;99.90;;;;;;5037779;28;20211;-72
2022/02/17 11:55:55;;;;;;;6.13;1.80;;;10.60;99.90;;;;;;5033447;28;20286;-71
2022/02/17 11:58:44;;;;;;;6.03;1.50;;;10.50;99.90;;;;;;5038927;28;20726;-71
2022/02/17 12:01:40;;;;;;;3.40;1.43;;;10.40;99.90;;;;;;5038663;28;20195;-73
2022/02/17 12:04:14;;;;;;;6.67;1.70;;;10.30;99.90;;;;;;5028069;28;20217;-74
2022/02/17 12:06:45;;;;;;;5.10;1.63;;;10.20;99.90;;;;;;5038746;28;20216;-72
2022/02/17 12:09:37;;;;;;;7.47;2.20;;;10.10;99.90;;;;;;5040280;28;20207;-73
2022/02/17 12:12:26;;;;;;;5.23;1.40;;;10.10;99.90;;;;;;5037316;28;20301;-72
2022/02/17 12:14:56;;;;;;;8.73;1.67;;;10.00;99.90;;;;;;5037285;28;20210;-71
2022/02/17 12:17:31;;;;;;;3.87;1.30;;;10.00;99.90;;;;;;5022302;28;20214;-72
2022/02/17 12:20:07;;;;;;;3.63;1.60;;;9.90;99.90;;;;;;5036283;28;20198;-72
2022/02/17 12:22:34;;;;;;;6.33;2.00;;;9.80;99.90;;;;;;5037054;28;20202;-71
2022/02/17 12:25:19;;;;;;;3.47;1.70;;;9.70;99.90;;;;;;5026911;28;20207;-72
2022/02/17 12:27:51;;;;;;;5.37;1.67;;;9.70;99.90;;;;;;5037239;28;20272;-72
2022/02/17 12:30:28;;;;;;;4.33;2.00;;;9.50;99.90;;;;;;5040368;28;20208;-72
2022/02/17 12:33:10;;;;;;;7.43;1.83;;;9.50;99.90;;;;;;5040966;28;20210;-71
2022/02/17 12:35:38;;;;;;;6.93;2.20;;;9.40;99.90;;;;;;5037020;28;20198;-72
2022/02/17 12:38:07;;;;;;;4.40;1.30;;;9.30;99.90;;;;;;5039602;28;20297;-72
2022/02/17 12:40:35;;;;;;;4.53;1.93;;;9.20;99.90;;;;;;5084475;28;20243;-72
2022/02/17 12:43:02;;;;;;;6.57;1.63;;;9.20;99.90;;;;;;5070087;28;20240;-71
2022/02/17 12:45:40;;;;;;;4.67;1.47;;;9.10;99.90;;;;;;5075848;28;20185;-71
2022/02/17 12:48:08;;;;;;;4.43;1.83;;;9.10;99.90;;;;;;5072368;28;20224;-70
2022/02/17 12:50:41;;;;;;;4.73;1.87;;;9.10;99.90;;;;;;5068445;28;20300;-71
2022/02/17 12:53:08;;;;;;;2.90;1.23;;;9.10;99.90;;;;;;5079053;28;20692;-70
2022/02/17 12:55:42;;;;;;;6.10;1.33;;;9.10;99.90;;;;;;5088758;28;20287;-72
2022/02/17 12:58:10;;;;;;;6.20;1.90;;;9.00;99.90;;;;;;5083195;28;20296;-71
2022/02/17 13:00:39;;;;;;;3.53;1.40;;;9.10;99.90;;;;;;5077207;28;20239;-71